createdAt,value
2018-11-25T00:01:26.859Z,86.79
2018-11-25T00:04:14.525Z,87.13
2018-11-25T00:07:01.852Z,87.20
2018-11-25T00:09:49.671Z,87.22
2018-11-25T00:12:37.037Z,87.22
2018-11-25T00:15:24.557Z,87.19
2018-11-25T00:18:11.984Z,87.15
2018-11-25T00:21:00.755Z,87.19
2018-11-25T00:23:48.073Z,87.20
2018-11-25T00:26:35.299Z,87.17
2018-11-25T00:29:22.352Z,87.18
2018-11-25T00:32:09.738Z,87.21
2018-11-25T00:34:56.791Z,87.33
2018-11-25T00:37:48.695Z,87.38
2018-11-25T00:40:31.700Z,87.42
2018-11-25T00:43:18.857Z,87.43
2018-11-25T00:46:06.318Z,87.46
2018-11-25T00:48:53.842Z,87.49
2018-11-25T00:51:41.019Z,87.55
2018-11-25T00:54:28.748Z,87.51
2018-11-25T00:57:17.398Z,87.61
2018-11-25T01:00:04.826Z,87.75
2018-11-25T01:02:52.546Z,87.82
2018-11-25T01:05:40.222Z,87.92
2018-11-25T01:08:27.672Z,87.96
2018-11-25T01:11:15.498Z,87.98
2018-11-25T01:14:02.976Z,87.98
2018-11-25T01:16:50.196Z,88.08
2018-11-25T01:19:37.570Z,88.11
2018-11-25T01:22:24.984Z,88.20
2018-11-25T01:25:12.818Z,88.24
2018-11-25T01:28:00.785Z,88.37
2018-11-25T01:30:48.765Z,88.51
2018-11-25T01:33:36.302Z,88.55
2018-11-25T01:36:23.428Z,88.63
2018-11-25T01:39:10.629Z,88.64
2018-11-25T01:41:57.943Z,88.60
2018-11-25T01:44:45.795Z,88.47
2018-11-25T01:47:33.259Z,88.52
2018-11-25T01:50:20.355Z,88.67
2018-11-25T01:53:07.837Z,88.85
2018-11-25T01:55:55.118Z,88.92
2018-11-25T01:58:42.501Z,87.93
2018-11-25T02:01:29.965Z,88.35
2018-11-25T02:04:19.743Z,88.47
2018-11-25T02:07:04.870Z,87.65
2018-11-25T02:09:52.064Z,88.19
2018-11-25T02:12:40.915Z,88.63
2018-11-25T02:15:28.346Z,88.85
2018-11-25T02:18:15.664Z,88.92
2018-11-25T02:21:02.674Z,89.05
2018-11-25T02:23:49.831Z,88.01
2018-11-25T02:26:37.006Z,88.44
2018-11-25T02:29:24.250Z,88.66
2018-11-25T02:32:11.359Z,88.72
2018-11-25T02:34:59.809Z,88.79
2018-11-25T02:37:46.817Z,88.79
2018-11-25T02:40:34.284Z,88.83
2018-11-25T02:43:21.661Z,88.96
2018-11-25T02:46:09.328Z,89.06
2018-11-25T02:48:56.651Z,89.04
2018-11-25T02:51:43.824Z,89.11
2018-11-25T02:54:31.436Z,89.32
2018-11-25T02:57:18.613Z,89.35
2018-11-25T03:00:05.892Z,89.32
2018-11-25T03:02:53.500Z,89.21
2018-11-25T03:05:40.736Z,89.16
2018-11-25T03:08:27.945Z,87.95
2018-11-25T03:11:22.747Z,88.22
2018-11-25T03:14:09.746Z,88.40
2018-11-25T03:16:57.156Z,88.40
2018-11-25T03:19:44.437Z,88.43
2018-11-25T03:22:31.962Z,88.49
2018-11-25T03:25:19.081Z,88.50
2018-11-25T03:28:06.342Z,88.54
2018-11-25T03:30:53.551Z,88.52
2018-11-25T03:33:40.897Z,88.53
2018-11-25T03:36:28.562Z,88.58
2018-11-25T03:39:16.002Z,88.62
2018-11-25T03:42:03.572Z,88.62
2018-11-25T03:44:50.936Z,88.66
2018-11-25T03:47:45.687Z,88.75
2018-11-25T03:50:32.882Z,88.70
2018-11-25T03:53:20.167Z,88.74
2018-11-25T03:56:10.348Z,88.70
2018-11-25T03:58:57.777Z,88.71
2018-11-25T04:01:45.050Z,88.75
2018-11-25T04:04:32.418Z,88.84
2018-11-25T04:10:25.635Z,89.07
2018-11-25T04:13:13.142Z,87.99
2018-11-25T04:16:00.457Z,88.46
2018-11-25T04:18:47.939Z,87.50
2018-11-25T04:21:35.578Z,88.07
2018-11-25T04:24:22.987Z,88.41
2018-11-25T04:27:11.027Z,88.55
2018-11-25T04:30:13.670Z,88.65
2018-11-25T04:33:00.651Z,88.67
2018-11-25T04:35:48.138Z,88.72
2018-11-25T04:38:35.659Z,88.76
2018-11-25T04:41:22.980Z,88.84
2018-11-25T04:44:10.200Z,88.89
2018-11-25T04:46:57.214Z,88.93
2018-11-25T04:49:44.643Z,88.99
2018-11-25T04:52:31.834Z,89.00
2018-11-25T04:55:19.213Z,88.96
2018-11-25T04:58:06.448Z,87.68
2018-11-25T05:00:53.707Z,86.67
2018-11-25T05:03:41.061Z,87.15
2018-11-25T05:06:28.545Z,86.03
2018-11-25T05:09:15.926Z,86.69
2018-11-25T05:12:03.329Z,87.02
2018-11-25T05:14:50.752Z,87.24
2018-11-25T05:17:37.877Z,87.42
2018-11-25T05:20:27.623Z,87.48
2018-11-25T05:23:15.394Z,86.14
2018-11-25T05:26:10.433Z,86.63
2018-11-25T05:28:57.291Z,86.93
2018-11-25T05:31:59.872Z,87.08
2018-11-25T05:34:47.545Z,85.57
2018-11-25T05:37:35.108Z,86.09
2018-11-25T05:40:22.184Z,84.83
2018-11-25T05:43:17.237Z,85.51
2018-11-25T05:46:04.590Z,85.98
2018-11-25T05:48:51.836Z,86.36
2018-11-25T05:51:39.097Z,85.30
2018-11-25T05:54:26.295Z,86.21
2018-11-25T05:57:14.560Z,86.65
2018-11-25T06:00:02.229Z,87.03
2018-11-25T06:02:49.495Z,87.31
2018-11-25T06:05:37.140Z,87.60
2018-11-25T06:08:24.532Z,87.84
2018-11-25T06:11:11.713Z,87.99
2018-11-25T06:13:59.341Z,88.19
2018-11-25T06:16:46.763Z,88.31
2018-11-25T06:19:33.883Z,88.30
2018-11-25T06:22:21.305Z,88.52
2018-11-25T06:25:11.948Z,88.71
2018-11-25T06:27:59.589Z,88.92
2018-11-25T06:30:47.879Z,88.96
2018-11-25T06:33:35.242Z,87.79
2018-11-25T06:36:22.485Z,86.94
2018-11-25T06:39:09.640Z,87.40
2018-11-25T06:41:57.155Z,87.56
2018-11-25T06:44:44.578Z,87.73
2018-11-25T06:47:31.802Z,87.92
2018-11-25T06:50:19.162Z,88.09
2018-11-25T06:53:06.632Z,88.32
2018-11-25T06:55:54.212Z,88.66
2018-11-25T06:58:41.558Z,88.79
2018-11-25T07:01:28.977Z,88.79
2018-11-25T07:04:16.442Z,88.92
2018-11-25T07:07:03.804Z,89.01
2018-11-25T07:09:51.255Z,87.99
2018-11-25T07:12:46.245Z,87.32
2018-11-25T07:15:33.404Z,88.04
2018-11-25T07:18:20.728Z,88.39
2018-11-25T07:21:08.155Z,88.56
2018-11-25T07:23:55.610Z,88.77
2018-11-25T07:26:42.998Z,88.89
2018-11-25T07:29:32.717Z,89.04
2018-11-25T07:32:19.787Z,89.13
2018-11-25T07:35:07.064Z,89.14
2018-11-25T07:37:55.594Z,89.22
2018-11-25T07:40:42.732Z,89.21
2018-11-25T07:43:30.091Z,89.17
2018-11-25T07:46:17.958Z,89.17
2018-11-25T07:49:04.979Z,89.17
2018-11-25T07:51:52.462Z,89.20
2018-11-25T07:54:39.723Z,89.21
2018-11-25T07:57:27.906Z,89.18
2018-11-25T08:00:15.851Z,89.13
2018-11-25T08:03:03.257Z,89.07
2018-11-25T08:05:51.671Z,89.01
2018-11-25T08:08:39.350Z,88.97
2018-11-25T08:11:26.823Z,88.91
2018-11-25T08:14:15.117Z,88.93
2018-11-25T08:17:03.298Z,88.86
2018-11-25T08:19:50.912Z,88.80
2018-11-25T08:22:38.201Z,88.63
2018-11-25T08:25:25.744Z,88.52
2018-11-25T08:28:14.350Z,86.85
2018-11-25T08:31:01.486Z,85.29
2018-11-25T08:33:48.929Z,83.78
2018-11-25T08:36:36.930Z,84.23
2018-11-25T08:39:23.929Z,84.55
2018-11-25T08:42:11.838Z,84.93
2018-11-25T08:45:11.668Z,85.07
2018-11-25T08:47:59.274Z,85.31
2018-11-25T08:50:46.721Z,85.32
2018-11-25T08:53:34.077Z,85.50
2018-11-25T08:56:21.641Z,85.12
2018-11-25T08:59:09.119Z,85.12
2018-11-25T09:01:56.487Z,85.15
2018-11-25T09:04:44.337Z,85.00
2018-11-25T09:07:31.937Z,82.76
2018-11-25T09:10:19.745Z,83.27
2018-11-25T09:13:07.196Z,83.65
2018-11-25T09:15:54.726Z,83.92
2018-11-25T09:18:42.552Z,84.07
2018-11-25T09:21:30.358Z,84.11
2018-11-25T09:24:17.937Z,84.24
2018-11-25T09:27:05.486Z,84.46
2018-11-25T09:30:00.954Z,84.61
2018-11-25T09:32:51.610Z,84.68
2018-11-25T09:35:38.742Z,84.74
2018-11-25T09:38:26.836Z,84.54
2018-11-25T09:41:14.493Z,84.14
2018-11-25T09:44:05.699Z,81.72
2018-11-25T09:46:53.639Z,82.29
2018-11-25T09:49:40.818Z,82.51
2018-11-25T09:52:28.524Z,82.80
2018-11-25T09:55:15.685Z,82.27
2018-11-25T09:58:03.069Z,82.67
2018-11-25T10:00:54.231Z,82.73
2018-11-25T10:03:41.936Z,82.44
2018-11-25T10:06:29.783Z,82.41
2018-11-25T10:09:17.272Z,82.33
2018-11-25T10:12:05.821Z,82.00
2018-11-25T10:14:53.471Z,81.87
2018-11-25T10:17:42.888Z,81.91
2018-11-25T10:20:31.403Z,81.89
2018-11-25T10:23:18.944Z,78.83
2018-11-25T10:26:08.957Z,79.86
2018-11-25T10:32:16.067Z,80.67
2018-11-25T10:35:03.271Z,80.72
2018-11-25T10:37:50.578Z,80.76
2018-11-25T10:40:47.111Z,80.70
2018-11-25T10:43:35.163Z,77.18
2018-11-25T10:46:22.534Z,74.70
2018-11-25T10:49:10.107Z,76.83
2018-11-25T10:51:57.876Z,76.86
2018-11-25T10:54:45.089Z,77.40
2018-11-25T10:57:40.565Z,78.25
2018-11-25T11:03:08.676Z,78.81
2018-11-25T11:05:57.781Z,78.64
2018-11-25T11:08:46.356Z,78.61
2018-11-25T11:11:33.354Z,78.91
2018-11-25T11:14:23.029Z,77.73
2018-11-25T11:17:10.349Z,77.76
2018-11-25T11:19:58.117Z,77.98
2018-11-25T11:22:45.631Z,74.10
2018-11-25T11:25:33.303Z,75.92
2018-11-25T11:28:21.682Z,75.96
2018-11-25T11:31:13.274Z,76.50
2018-11-25T11:33:58.882Z,77.00
2018-11-25T11:36:46.495Z,77.22
2018-11-25T11:42:44.251Z,77.20
2018-11-25T11:45:32.480Z,72.62
2018-11-25T11:48:20.888Z,74.36
2018-11-25T11:51:08.894Z,75.24
2018-11-25T11:54:00.759Z,75.92
2018-11-25T11:56:48.627Z,75.90
2018-11-25T11:59:36.202Z,76.36
2018-11-25T12:02:23.470Z,76.48
2018-11-25T12:05:11.190Z,76.54
2018-11-25T12:07:58.768Z,76.69
2018-11-25T12:10:48.312Z,76.79
2018-11-25T12:13:35.797Z,76.62
2018-11-25T12:16:23.426Z,76.58
2018-11-25T12:19:11.128Z,76.47
2018-11-25T12:21:58.974Z,76.13
2018-11-25T12:24:55.864Z,76.23
2018-11-25T12:27:43.115Z,75.82
2018-11-25T12:30:31.079Z,75.69
2018-11-25T12:33:29.019Z,75.49
2018-11-25T12:36:16.852Z,75.33
2018-11-25T12:39:04.493Z,75.61
2018-11-25T12:41:53.193Z,74.99
2018-11-25T12:44:40.258Z,75.04
2018-11-25T12:47:27.955Z,75.22
2018-11-25T12:53:21.313Z,76.26
2018-11-25T12:56:08.981Z,76.64
2018-11-25T12:58:56.745Z,76.61
2018-11-25T13:01:43.859Z,76.47
2018-11-25T13:04:31.289Z,72.84
2018-11-25T13:07:18.977Z,74.29
2018-11-25T13:10:06.385Z,75.05
2018-11-25T13:12:53.306Z,75.05
2018-11-25T13:15:40.809Z,75.62
2018-11-25T13:18:28.435Z,75.76
2018-11-25T13:24:26.392Z,70.99
2018-11-25T13:27:14.267Z,69.07
2018-11-25T13:30:03.081Z,71.91
2018-11-25T13:35:57.921Z,74.69
2018-11-25T13:38:48.986Z,72.65
2018-11-25T13:41:36.616Z,75.33
2018-11-25T13:44:25.409Z,76.84
2018-11-25T13:47:12.815Z,77.52
2018-11-25T13:53:06.755Z,75.34
2018-11-25T13:55:55.559Z,74.32
2018-11-25T13:58:43.049Z,73.79
2018-11-25T14:01:30.516Z,75.92
2018-11-25T14:04:17.996Z,76.89
2018-11-25T14:07:05.702Z,77.38
2018-11-25T14:09:52.870Z,77.80
2018-11-25T14:12:40.209Z,78.11
2018-11-25T14:15:27.628Z,76.30
2018-11-25T14:18:14.898Z,77.80
2018-11-25T14:21:02.571Z,78.71
2018-11-25T14:27:05.108Z,79.90
2018-11-25T14:29:53.269Z,80.33
2018-11-25T14:32:40.514Z,80.97
2018-11-25T14:35:28.091Z,81.40
2018-11-25T14:38:16.617Z,81.81
2018-11-25T14:41:04.615Z,82.47
2018-11-25T14:43:51.804Z,83.01
2018-11-25T14:46:39.829Z,83.24
2018-11-25T14:49:34.171Z,83.93
2018-11-25T14:52:22.410Z,84.61
2018-11-25T14:55:10.183Z,84.96
2018-11-25T14:57:57.307Z,85.27
2018-11-25T15:00:44.422Z,85.61
2018-11-25T15:03:39.831Z,85.78
2018-11-25T15:06:29.520Z,85.54
2018-11-25T15:09:14.512Z,85.39
2018-11-25T15:12:03.018Z,85.55
2018-11-25T15:14:50.591Z,85.68
2018-11-25T15:17:38.375Z,85.93
2018-11-25T15:20:25.489Z,86.20
2018-11-25T15:23:13.017Z,86.24
2018-11-25T15:29:06.660Z,85.46
2018-11-25T15:31:57.661Z,85.87
2018-11-25T15:34:44.717Z,84.67
2018-11-25T15:37:34.708Z,85.47
2018-11-25T15:40:22.871Z,85.59
2018-11-25T15:43:10.042Z,84.55
2018-11-25T15:45:57.728Z,85.79
2018-11-25T15:48:45.249Z,86.36
2018-11-25T15:51:32.810Z,86.75
2018-11-25T15:54:20.098Z,86.80
2018-11-25T15:57:07.420Z,87.10
2018-11-25T15:59:54.578Z,87.05
2018-11-25T16:02:42.002Z,86.94
2018-11-25T16:05:36.976Z,87.34
2018-11-25T16:08:25.052Z,87.53
2018-11-25T16:11:12.065Z,88.27
2018-11-25T16:13:59.586Z,88.12
2018-11-25T16:16:46.784Z,88.02
2018-11-25T16:19:34.175Z,88.12
2018-11-25T16:22:22.061Z,88.62
2018-11-25T16:25:09.194Z,88.66
2018-11-25T16:27:56.985Z,89.04
2018-11-25T16:30:44.510Z,89.35
2018-11-25T16:33:32.037Z,89.72
2018-11-25T16:36:19.255Z,89.85
2018-11-25T16:39:06.647Z,88.76
2018-11-25T16:41:57.926Z,89.37
2018-11-25T16:44:42.353Z,89.74
2018-11-25T16:47:29.709Z,89.88
2018-11-25T16:50:25.062Z,89.73
2018-11-25T16:53:06.585Z,89.67
2018-11-25T16:55:53.968Z,89.79
2018-11-25T17:01:47.579Z,90.25
2018-11-25T17:04:34.859Z,90.55
2018-11-25T17:07:23.354Z,89.36
2018-11-25T17:10:11.692Z,90.07
2018-11-25T17:12:58.767Z,90.21
2018-11-25T17:15:46.189Z,90.38
2018-11-25T17:18:33.716Z,89.24
2018-11-25T17:21:21.399Z,89.88
2018-11-25T17:24:09.084Z,90.01
2018-11-25T17:26:56.432Z,90.43
2018-11-25T17:32:52.323Z,90.81
2018-11-25T17:35:42.207Z,91.04
2018-11-25T17:38:29.204Z,91.79
2018-11-25T17:41:16.519Z,91.82
2018-11-25T17:44:04.207Z,91.85
2018-11-25T17:46:51.527Z,91.56
2018-11-25T17:49:42.101Z,91.47
2018-11-25T17:52:29.242Z,90.35
2018-11-25T17:55:16.440Z,91.15
2018-11-25T17:58:03.867Z,91.58
2018-11-25T18:00:51.491Z,92.05
2018-11-25T18:03:38.593Z,92.46
2018-11-25T18:06:25.965Z,92.64
2018-11-25T18:09:13.250Z,92.69
2018-11-25T18:12:01.040Z,92.56
2018-11-25T18:14:48.355Z,92.63
2018-11-25T18:17:35.919Z,92.35
2018-11-25T18:20:24.106Z,92.25
2018-11-25T18:26:24.165Z,92.20
2018-11-25T18:29:11.481Z,92.86
2018-11-25T18:32:00.850Z,93.00
2018-11-25T18:34:48.927Z,93.13
2018-11-25T18:37:40.434Z,93.12
2018-11-25T18:40:45.230Z,91.73
2018-11-25T18:43:32.095Z,92.64
2018-11-25T18:46:20.086Z,92.77
2018-11-25T18:49:07.806Z,92.92
2018-11-25T18:51:56.086Z,92.52
2018-11-25T18:54:56.803Z,92.26
2018-11-25T18:57:45.354Z,92.33
2018-11-25T19:00:33.293Z,92.29
2018-11-25T19:03:21.813Z,92.00
2018-11-25T19:06:10.572Z,91.83
2018-11-25T19:08:59.196Z,91.69
2018-11-25T19:11:50.449Z,91.67
2018-11-25T19:14:38.068Z,91.75
2018-11-25T19:17:25.627Z,91.81
2018-11-25T19:20:12.643Z,91.60
2018-11-25T19:23:00.836Z,91.44
2018-11-25T19:25:47.949Z,91.31
2018-11-25T19:28:36.807Z,91.37
2018-11-25T19:31:23.859Z,91.35
2018-11-25T19:34:10.942Z,91.16
2018-11-25T19:36:58.463Z,91.21
2018-11-25T19:42:52.966Z,90.97
2018-11-25T19:45:45.732Z,90.83
2018-11-25T19:48:33.641Z,90.74
2018-11-25T19:51:21.221Z,90.58
2018-11-25T19:54:11.716Z,90.48
2018-11-25T19:56:59.652Z,89.16
2018-11-25T19:59:47.681Z,89.60
2018-11-25T20:02:35.872Z,88.32
2018-11-25T20:05:23.602Z,88.89
2018-11-25T20:08:11.559Z,88.97
2018-11-25T20:11:00.913Z,89.11
2018-11-25T20:13:50.522Z,89.46
2018-11-25T20:16:38.454Z,89.52
2018-11-25T20:19:26.392Z,89.67
2018-11-25T20:22:24.719Z,89.95
2018-11-25T20:25:10.456Z,89.95
2018-11-25T20:27:58.715Z,88.63
2018-11-25T20:30:46.859Z,89.05
2018-11-25T20:33:40.501Z,89.13
2018-11-25T20:36:29.384Z,89.36
2018-11-25T20:39:20.153Z,89.61
2018-11-25T20:42:08.085Z,89.92
2018-11-25T20:44:55.731Z,89.98
2018-11-25T20:48:01.459Z,90.02
2018-11-25T20:50:50.381Z,90.21
2018-11-25T20:53:53.606Z,88.88
2018-11-25T20:56:47.540Z,89.52
2018-11-25T20:59:35.711Z,88.25
2018-11-25T21:02:29.362Z,88.88
2018-11-25T21:05:12.652Z,89.10
2018-11-25T21:08:00.364Z,89.32
2018-11-25T21:10:49.593Z,89.38
2018-11-25T21:13:37.761Z,89.40
2018-11-25T21:16:25.536Z,88.06
2018-11-25T21:19:13.347Z,88.65
2018-11-25T21:22:00.478Z,88.81
2018-11-25T21:24:57.015Z,89.04
2018-11-25T21:27:45.354Z,89.08
2018-11-25T21:30:33.505Z,89.25
2018-11-25T21:33:22.472Z,89.36
2018-11-25T21:36:09.908Z,89.54
2018-11-25T21:39:00.912Z,89.78
2018-11-25T21:41:49.536Z,89.96
2018-11-25T21:44:37.900Z,90.10
2018-11-25T21:47:25.166Z,90.37
2018-11-25T21:50:15.696Z,90.32
2018-11-25T21:53:10.903Z,90.55
2018-11-25T21:55:59.553Z,90.66
2018-11-25T21:58:47.536Z,90.55
2018-11-25T22:01:37.554Z,90.66
2018-11-25T22:04:25.762Z,90.58
2018-11-25T22:07:17.703Z,89.16
2018-11-25T22:10:05.588Z,89.71
2018-11-25T22:12:53.939Z,89.75
2018-11-25T22:15:41.876Z,88.39
2018-11-25T22:18:30.086Z,89.14
2018-11-25T22:21:17.871Z,89.42
2018-11-25T22:24:06.385Z,89.64
2018-11-25T22:26:55.714Z,89.90
2018-11-25T22:29:45.941Z,90.05
2018-11-25T22:32:34.981Z,90.17
2018-11-25T22:35:22.849Z,90.15
2018-11-25T22:38:12.928Z,90.21
2018-11-25T22:41:00.377Z,90.16
2018-11-25T22:43:48.936Z,90.10
2018-11-25T22:46:36.701Z,90.16
2018-11-25T22:49:24.655Z,90.33
2018-11-25T22:52:12.807Z,90.29
2018-11-25T22:55:01.274Z,90.31
2018-11-25T22:57:53.363Z,90.31
2018-11-25T23:00:40.981Z,90.50
2018-11-25T23:03:34.344Z,90.64
2018-11-25T23:06:49.349Z,90.80
2018-11-25T23:09:36.693Z,90.79
2018-11-25T23:12:24.483Z,90.81
2018-11-25T23:15:15.062Z,89.44
2018-11-25T23:18:03.037Z,89.92
2018-11-25T23:20:50.992Z,90.21
2018-11-25T23:23:41.324Z,88.83
2018-11-25T23:26:29.778Z,89.54
2018-11-25T23:29:19.054Z,89.63
2018-11-25T23:32:06.843Z,89.74
2018-11-25T23:34:54.529Z,89.87
2018-11-25T23:37:42.139Z,88.59
2018-11-25T23:40:31.447Z,87.75
2018-11-25T23:43:19.136Z,86.96
2018-11-25T23:46:07.184Z,87.81
2018-11-25T23:48:54.680Z,88.23
2018-11-25T23:51:41.537Z,88.54
2018-11-25T23:54:28.759Z,88.93
2018-11-25T23:57:15.734Z,87.62
